Time;durP1;ratioP1;P1;durP2;ratioP2;P2;SDS_P1;SDS_P2;PMS_P1;PMS_P2;Temp;Humidity;BMP_temperature;BMP_pressure;BME280_temperature;BME280_humidity;BME280_pressure;Samples;Min_cycle;Max_cycle;Signal;HPM_P1;HPM_P2
2022/12/02 00:01:44;;;;;;;8.95;6.20;;;6.00;99.90;;;;;;5070821;28;20166;-80
2022/12/02 00:04:21;;;;;;;10.68;6.82;;;5.90;99.90;;;;;;5072333;28;20469;-79
2022/12/02 00:06:48;;;;;;;10.90;6.85;;;5.80;99.90;;;;;;5072595;28;20059;-79
2022/12/02 00:09:25;;;;;;;10.48;6.45;;;5.80;99.90;;;;;;5072805;28;20047;-79
2022/12/02 00:11:51;;;;;;;10.63;7.00;;;5.80;99.90;;;;;;5070417;28;20024;-79
2022/12/02 00:14:24;;;;;;;10.20;6.50;;;5.90;99.90;;;;;;5080368;28;20085;-79
2022/12/02 00:16:50;;;;;;;9.77;6.40;;;5.90;99.90;;;;;;5091946;28;20110;-79
2022/12/02 00:19:16;;;;;;;10.02;6.30;;;5.80;99.90;;;;;;5091888;28;20024;-79
2022/12/02 00:21:42;;;;;;;10.70;6.82;;;5.80;99.90;;;;;;5091828;28;20027;-79
2022/12/02 00:24:08;;;;;;;10.38;6.18;;;6.00;99.90;;;;;;5092178;28;20489;-79
2022/12/02 00:26:34;;;;;;;10.65;6.32;;;5.90;99.90;;;;;;5091627;28;20062;-79
2022/12/02 00:28:59;;;;;;;9.07;6.43;;;6.00;99.90;;;;;;5091971;28;20119;-79
2022/12/02 00:31:25;;;;;;;10.63;6.28;;;6.00;99.90;;;;;;5092259;28;20077;-79
2022/12/02 00:33:51;;;;;;;9.65;6.85;;;5.80;99.90;;;;;;5091544;28;20518;-79
2022/12/02 00:36:17;;;;;;;11.25;6.85;;;5.80;99.90;;;;;;5092292;28;20074;-79
2022/12/02 00:38:42;;;;;;;10.57;6.75;;;5.90;99.90;;;;;;5090410;28;20032;-79
2022/12/02 00:41:08;;;;;;;11.45;7.95;;;5.80;99.90;;;;;;5091749;28;20035;-79
2022/12/02 00:46:30;;;;;;;11.98;7.32;;;5.90;99.90;;;;;;5091819;28;20094;-79
2022/12/02 00:49:02;;;;;;;10.32;6.68;;;6.00;99.90;;;;;;5073995;28;20070;-79
2022/12/02 00:51:27;;;;;;;9.80;6.25;;;6.00;99.90;;;;;;5070582;28;20111;-79
2022/12/02 00:53:53;;;;;;;10.05;6.63;;;6.00;99.90;;;;;;5070976;28;20131;-79
2022/12/02 00:56:19;;;;;;;11.18;6.28;;;5.90;99.90;;;;;;5071522;28;20468;-79
2022/12/02 00:58:44;;;;;;;10.60;7.10;;;5.80;99.90;;;;;;5070922;28;20592;-79
2022/12/02 01:01:10;;;;;;;10.50;6.80;;;5.80;99.90;;;;;;5076390;28;20459;-79
2022/12/02 01:03:36;;;;;;;10.55;6.97;;;5.80;99.90;;;;;;5072408;28;20460;-79
2022/12/02 01:06:02;;;;;;;11.70;7.40;;;5.80;99.90;;;;;;5082565;28;20063;-79
2022/12/02 01:08:28;;;;;;;12.18;7.25;;;5.80;99.90;;;;;;5073242;28;20088;-79
2022/12/02 01:10:55;;;;;;;11.63;7.72;;;5.90;99.90;;;;;;5071795;28;20500;-79
2022/12/02 01:13:21;;;;;;;11.02;6.68;;;5.80;99.90;;;;;;5072554;28;20028;-79
2022/12/02 01:15:47;;;;;;;11.88;7.47;;;5.80;99.90;;;;;;5077698;28;20024;-79
2022/12/02 01:18:12;;;;;;;11.52;7.05;;;5.80;99.90;;;;;;5066807;28;20409;-79
2022/12/02 01:20:38;;;;;;;12.63;7.53;;;5.80;99.90;;;;;;5070916;28;20032;-79
2022/12/02 01:23:04;;;;;;;12.52;7.35;;;5.70;99.90;;;;;;5070985;28;20048;-79
2022/12/02 01:25:29;;;;;;;11.82;8.02;;;5.80;99.90;;;;;;5071174;28;20044;-79
2022/12/02 01:27:55;;;;;;;11.75;7.03;;;5.80;99.90;;;;;;5069623;28;20115;-80
2022/12/02 01:30:21;;;;;;;12.57;8.15;;;5.70;99.90;;;;;;5079604;28;20543;-79
2022/12/02 01:32:47;;;;;;;12.20;7.90;;;5.70;99.90;;;;;;5074953;28;20446;-79
2022/12/02 01:35:12;;;;;;;11.45;7.80;;;5.70;99.90;;;;;;5070996;28;20416;-80
2022/12/02 01:37:38;;;;;;;12.85;7.90;;;5.70;99.90;;;;;;5073063;28;20062;-79
2022/12/02 01:40:06;;;;;;;9.43;6.88;;;5.80;99.90;;;;;;5082014;28;20028;-79
2022/12/02 01:42:32;;;;;;;10.00;7.38;;;5.70;99.90;;;;;;5072731;28;20236;-79
2022/12/02 01:44:58;;;;;;;12.43;7.50;;;5.80;99.90;;;;;;5076743;28;20025;-79
2022/12/02 01:47:25;;;;;;;12.25;7.75;;;5.80;99.90;;;;;;5065369;28;20166;-79
2022/12/02 01:49:51;;;;;;;10.65;6.25;;;5.80;99.90;;;;;;5070889;28;20024;-79
2022/12/02 01:52:17;;;;;;;10.52;7.13;;;5.80;99.90;;;;;;5070690;28;20418;-79
2022/12/02 01:54:43;;;;;;;10.68;7.18;;;5.80;99.90;;;;;;5069182;28;20036;-79
2022/12/02 01:57:14;;;;;;;11.13;6.78;;;5.70;99.90;;;;;;5070502;28;20042;-79
2022/12/02 01:59:42;;;;;;;12.00;7.80;;;5.60;99.90;;;;;;5075589;28;20090;-79
2022/12/02 02:02:30;;;;;;;10.35;6.75;;;5.70;99.90;;;;;;5067805;28;20086;-79
2022/12/02 02:05:00;;;;;;;9.90;6.35;;;5.70;99.90;;;;;;5070587;28;20081;-79
2022/12/02 02:07:26;;;;;;;10.20;6.65;;;5.70;99.90;;;;;;5050450;28;20033;-79
2022/12/02 02:09:53;;;;;;;12.30;7.22;;;5.70;99.90;;;;;;5063010;28;20506;-79
2022/12/02 02:12:19;;;;;;;11.57;7.35;;;5.70;99.90;;;;;;5070687;28;20021;-79
2022/12/02 02:14:45;;;;;;;10.38;6.70;;;5.70;99.90;;;;;;5070604;28;20075;-79
2022/12/02 02:17:11;;;;;;;11.50;6.88;;;5.70;99.90;;;;;;5090840;28;20028;-79
2022/12/02 02:19:36;;;;;;;10.88;7.25;;;5.60;99.90;;;;;;5089863;28;20024;-79
2022/12/02 02:22:08;;;;;;;12.30;7.78;;;5.70;99.90;;;;;;5090702;28;20390;-79
2022/12/02 02:24:34;;;;;;;11.32;6.90;;;5.80;99.90;;;;;;5090547;28;20078;-79
2022/12/02 02:27:00;;;;;;;11.85;8.15;;;5.70;99.90;;;;;;5090539;28;20028;-79
2022/12/02 02:29:25;;;;;;;9.43;6.55;;;5.70;99.90;;;;;;5090499;28;20420;-79
2022/12/02 02:31:51;;;;;;;12.35;6.75;;;5.70;99.90;;;;;;5088852;28;20406;-79
2022/12/02 02:34:17;;;;;;;11.07;7.40;;;5.80;99.90;;;;;;5090196;28;20028;-79
2022/12/02 02:36:43;;;;;;;11.32;7.25;;;5.80;99.90;;;;;;5082905;28;20031;-79
2022/12/02 02:39:08;;;;;;;10.88;7.57;;;5.60;99.90;;;;;;5070359;28;20085;-79
2022/12/02 02:41:35;;;;;;;12.45;7.78;;;5.70;99.90;;;;;;5071889;28;20405;-79
2022/12/02 02:44:01;;;;;;;12.70;7.97;;;5.60;99.90;;;;;;5073856;28;20162;-79
2022/12/02 02:46:26;;;;;;;10.82;7.38;;;5.60;99.90;;;;;;5082415;28;20025;-79
2022/12/02 02:48:52;;;;;;;12.38;7.95;;;5.60;99.90;;;;;;5067733;28;20036;-79
2022/12/02 02:51:18;;;;;;;12.32;8.10;;;5.60;99.90;;;;;;5074297;28;20090;-79
2022/12/02 02:53:44;;;;;;;12.63;8.20;;;5.60;99.90;;;;;;5074144;28;20103;-79
2022/12/02 02:56:10;;;;;;;12.40;7.90;;;5.60;99.90;;;;;;5074079;28;20017;-79
2022/12/02 02:58:36;;;;;;;13.13;8.23;;;5.60;99.90;;;;;;5073494;28;20099;-79
2022/12/02 03:01:06;;;;;;;12.45;8.13;;;5.60;99.90;;;;;;5073641;28;20031;-79
2022/12/02 03:03:37;;;;;;;11.68;8.13;;;5.60;99.90;;;;;;5073176;28;20028;-79
2022/12/02 03:06:06;;;;;;;12.38;7.97;;;5.70;99.90;;;;;;5073335;28;20024;-79
2022/12/02 03:08:33;;;;;;;11.30;7.90;;;5.60;99.90;;;;;;5073034;28;20062;-79
2022/12/02 03:11:00;;;;;;;12.52;7.90;;;5.60;99.90;;;;;;5073679;28;20012;-79
2022/12/02 03:13:28;;;;;;;11.55;8.07;;;5.70;99.90;;;;;;5083164;28;20111;-79
2022/12/02 03:15:54;;;;;;;11.77;7.63;;;5.60;99.90;;;;;;5072912;28;20102;-79
2022/12/02 03:18:20;;;;;;;12.85;8.18;;;5.50;99.90;;;;;;5093204;28;20107;-79
2022/12/02 03:20:46;;;;;;;12.05;8.02;;;5.60;99.90;;;;;;5093715;28;20067;-79
2022/12/02 03:23:13;;;;;;;12.88;7.45;;;5.70;99.90;;;;;;5091907;28;20042;-79
2022/12/02 03:25:39;;;;;;;11.00;7.38;;;5.70;99.90;;;;;;5093252;28;20028;-79
2022/12/02 03:28:05;;;;;;;12.85;7.97;;;5.70;99.90;;;;;;5093047;28;20077;-79
2022/12/02 03:30:31;;;;;;;13.00;8.65;;;5.60;99.90;;;;;;5092858;28;20024;-79
2022/12/02 03:32:57;;;;;;;12.30;7.65;;;5.50;99.90;;;;;;5093300;28;20012;-79
2022/12/02 03:35:24;;;;;;;12.93;8.07;;;5.50;99.90;;;;;;5092758;28;20107;-79
2022/12/02 03:37:49;;;;;;;11.00;7.70;;;5.60;99.90;;;;;;5093159;28;20035;-79
2022/12/02 03:40:16;;;;;;;12.85;7.75;;;5.60;99.90;;;;;;5093061;28;20389;-79
2022/12/02 03:42:42;;;;;;;13.38;8.15;;;5.60;99.90;;;;;;5092347;28;20066;-79
2022/12/02 03:45:10;;;;;;;11.48;7.57;;;5.60;99.90;;;;;;5092841;28;20020;-79
2022/12/02 03:47:36;;;;;;;12.00;7.75;;;5.60;99.90;;;;;;5086544;28;20089;-81
2022/12/02 03:50:02;;;;;;;12.65;8.23;;;5.60;99.90;;;;;;5072412;28;20447;-79
2022/12/02 03:52:28;;;;;;;14.95;9.10;;;5.60;99.90;;;;;;5076718;28;20020;-79
2022/12/02 03:54:54;;;;;;;15.20;9.05;;;5.60;99.90;;;;;;5092770;28;20032;-79
2022/12/02 03:57:20;;;;;;;11.48;7.30;;;5.50;99.90;;;;;;5092387;28;20024;-79
2022/12/02 03:59:46;;;;;;;12.32;7.65;;;5.60;99.90;;;;;;5085539;28;20028;-80
2022/12/02 04:02:11;;;;;;;13.05;7.78;;;5.60;99.90;;;;;;5072239;28;20545;-79
2022/12/02 04:04:37;;;;;;;13.25;8.13;;;5.70;99.90;;;;;;5072028;28;20401;-79
2022/12/02 04:07:03;;;;;;;10.57;7.60;;;5.60;99.90;;;;;;5072364;28;20033;-79
2022/12/02 04:09:28;;;;;;;12.43;7.72;;;5.60;99.90;;;;;;5071027;28;20485;-79
2022/12/02 04:11:54;;;;;;;12.75;7.72;;;5.60;99.90;;;;;;5071601;28;20257;-79
2022/12/02 04:14:20;;;;;;;12.52;7.68;;;5.70;99.90;;;;;;5082385;28;20020;-79
2022/12/02 04:16:45;;;;;;;11.57;7.10;;;5.70;99.90;;;;;;5092252;28;20517;-79
2022/12/02 04:19:12;;;;;;;9.70;6.90;;;5.80;99.90;;;;;;5092390;28;20505;-79
2022/12/02 04:21:38;;;;;;;10.82;7.10;;;5.80;99.90;;;;;;5091942;28;20028;-79
2022/12/02 04:24:04;;;;;;;11.20;7.50;;;5.80;99.90;;;;;;5090983;28;20408;-79
2022/12/02 04:26:29;;;;;;;8.60;6.15;;;5.80;99.90;;;;;;5091743;28;20048;-79
2022/12/02 04:28:55;;;;;;;10.82;7.63;;;5.80;99.90;;;;;;5092498;28;20546;-79
2022/12/02 04:31:21;;;;;;;10.57;6.50;;;5.80;99.90;;;;;;5091916;28;20858;-79
2022/12/02 04:33:46;;;;;;;11.27;7.07;;;5.70;99.90;;;;;;5091963;28;20069;-79
2022/12/02 04:36:12;;;;;;;9.57;6.53;;;5.70;99.90;;;;;;5091087;28;20462;-79
2022/12/02 04:38:37;;;;;;;9.10;6.63;;;5.70;99.90;;;;;;5091996;28;20517;-79
2022/12/02 04:41:03;;;;;;;9.05;6.47;;;5.80;99.90;;;;;;5091646;28;20077;-79
2022/12/02 04:43:29;;;;;;;9.23;6.22;;;5.90;99.90;;;;;;5091767;28;20080;-79
2022/12/02 04:45:54;;;;;;;10.90;6.97;;;5.80;99.90;;;;;;5091610;28;20393;-79
2022/12/02 04:48:20;;;;;;;10.02;6.85;;;5.70;99.90;;;;;;5080763;28;20111;-79
2022/12/02 04:50:46;;;;;;;9.85;6.75;;;5.80;99.90;;;;;;5071630;28;20040;-79
2022/12/02 04:53:11;;;;;;;12.15;7.70;;;5.80;99.90;;;;;;5071456;28;20397;-79
2022/12/02 04:55:37;;;;;;;11.68;6.90;;;5.70;99.90;;;;;;5071591;28;20389;-79
2022/12/02 04:58:03;;;;;;;9.68;6.50;;;5.80;99.90;;;;;;5071643;28;20095;-79
2022/12/02 05:00:29;;;;;;;11.90;7.22;;;5.90;99.90;;;;;;5071097;28;20027;-79
2022/12/02 05:02:55;;;;;;;12.73;7.18;;;5.80;99.90;;;;;;5071624;28;20021;-79
2022/12/02 05:05:21;;;;;;;9.82;6.55;;;5.80;99.90;;;;;;5070364;28;20030;-79
2022/12/02 05:07:47;;;;;;;11.18;6.43;;;5.70;99.90;;;;;;5071171;28;20115;-79
2022/12/02 05:10:13;;;;;;;11.52;7.15;;;5.80;99.90;;;;;;5069442;28;20468;-79
2022/12/02 05:12:39;;;;;;;11.13;7.15;;;5.80;99.90;;;;;;5070886;28;20020;-79
2022/12/02 05:15:05;;;;;;;11.68;6.65;;;5.80;99.90;;;;;;5067925;28;20067;-79
2022/12/02 05:17:31;;;;;;;9.98;6.63;;;5.70;99.90;;;;;;5072231;28;20043;-80
2022/12/02 05:19:56;;;;;;;9.45;6.22;;;5.80;99.90;;;;;;5090871;28;20409;-80
2022/12/02 05:22:22;;;;;;;10.05;6.68;;;5.90;99.90;;;;;;5091409;28;20077;-80
2022/12/02 05:24:48;;;;;;;10.27;6.32;;;5.90;99.90;;;;;;5090572;28;20486;-80
2022/12/02 05:27:14;;;;;;;9.23;6.47;;;5.90;99.90;;;;;;5090804;28;20215;-80
2022/12/02 05:29:40;;;;;;;10.35;6.00;;;5.90;99.90;;;;;;5091127;28;20020;-79
2022/12/02 05:32:05;;;;;;;9.98;6.72;;;5.90;99.90;;;;;;5091152;28;20504;-79
2022/12/02 05:34:31;;;;;;;12.50;6.88;;;5.90;99.90;;;;;;5090789;28;20445;-79
2022/12/02 05:36:57;;;;;;;12.15;6.78;;;5.90;99.90;;;;;;5091040;28;20485;-79
2022/12/02 05:39:22;;;;;;;10.65;7.35;;;5.90;99.90;;;;;;5090544;28;20521;-79
2022/12/02 05:41:49;;;;;;;12.43;6.95;;;5.90;99.90;;;;;;5090995;28;20466;-80
2022/12/02 05:44:20;;;;;;;10.63;6.80;;;6.00;99.90;;;;;;5090855;28;20054;-80
2022/12/02 05:46:46;;;;;;;11.15;7.25;;;5.90;99.90;;;;;;5091248;28;20024;-80
2022/12/02 05:49:18;;;;;;;12.18;7.05;;;5.90;99.90;;;;;;5072341;28;20043;-79
2022/12/02 05:51:45;;;;;;;10.73;7.10;;;5.90;99.90;;;;;;5070243;28;20540;-79
2022/12/02 05:54:18;;;;;;;9.63;6.70;;;5.90;99.90;;;;;;5070373;28;20032;-79
2022/12/02 05:56:44;;;;;;;12.55;7.57;;;5.90;99.90;;;;;;5085843;28;20027;-79
2022/12/02 05:59:14;;;;;;;12.23;7.75;;;5.90;99.90;;;;;;5070881;28;20381;-79
2022/12/02 06:01:40;;;;;;;10.05;6.60;;;5.80;99.90;;;;;;5070452;28;20016;-79
2022/12/02 06:04:17;;;;;;;10.57;6.72;;;5.70;99.90;;;;;;5077215;28;20028;-79
2022/12/02 06:06:43;;;;;;;12.88;8.13;;;5.80;99.90;;;;;;5075796;28;20025;-79
2022/12/02 06:09:12;;;;;;;12.15;7.95;;;5.70;99.90;;;;;;5070659;28;20029;-79
2022/12/02 06:11:38;;;;;;;12.30;7.28;;;5.70;99.90;;;;;;5072053;28;20875;-79
2022/12/02 06:14:21;;;;;;;13.05;8.15;;;5.70;99.90;;;;;;5079054;28;20504;-79
2022/12/02 06:16:50;;;;;;;10.93;7.45;;;5.60;99.90;;;;;;5072740;28;20099;-79
2022/12/02 06:19:29;;;;;;;11.38;7.68;;;5.80;99.90;;;;;;5074385;28;20115;-79
2022/12/02 06:21:58;;;;;;;12.15;7.75;;;5.80;99.90;;;;;;5089758;28;20114;-79
2022/12/02 06:24:30;;;;;;;10.55;7.22;;;5.80;99.90;;;;;;5074279;28;20065;-79
2022/12/02 06:26:58;;;;;;;12.65;7.55;;;5.70;99.90;;;;;;5074540;28;20075;-79
2022/12/02 06:29:26;;;;;;;11.27;6.93;;;5.80;99.90;;;;;;5073581;28;20024;-79
2022/12/02 06:31:52;;;;;;;11.57;7.30;;;5.70;99.90;;;;;;5072815;28;20107;-79
2022/12/02 06:34:30;;;;;;;11.75;7.85;;;5.80;99.90;;;;;;5073898;28;20024;-79
2022/12/02 06:37:08;;;;;;;10.30;7.00;;;5.80;99.90;;;;;;5074172;28;20020;-79
2022/12/02 06:39:34;;;;;;;9.68;6.47;;;5.80;99.90;;;;;;5073816;28;20027;-79
2022/12/02 06:42:04;;;;;;;9.07;6.45;;;5.80;99.90;;;;;;5073887;28;20020;-79
2022/12/02 06:47:32;;;;;;;10.45;7.00;;;5.80;99.90;;;;;;5074175;28;20027;-79
2022/12/02 06:50:07;;;;;;;11.18;7.20;;;5.80;99.90;;;;;;5074039;28;20119;-80
2022/12/02 06:52:41;;;;;;;10.38;6.82;;;5.70;99.90;;;;;;5086440;28;20493;-79
2022/12/02 06:55:32;;;;;;;10.82;6.97;;;5.80;99.90;;;;;;5078586;28;20066;-79
2022/12/02 06:58:27;;;;;;;9.73;6.70;;;5.80;99.90;;;;;;5061031;28;20086;-79
2022/12/02 07:00:59;;;;;;;11.10;6.65;;;5.80;99.90;;;;;;5074083;28;20035;-79
2022/12/02 07:03:29;;;;;;;9.70;6.32;;;5.80;99.90;;;;;;5072539;28;20035;-79
2022/12/02 07:06:20;;;;;;;11.32;7.75;;;5.80;99.90;;;;;;5082332;28;20024;-79
2022/12/02 07:08:46;;;;;;;10.07;6.45;;;5.70;99.90;;;;;;5049612;28;20522;-79
2022/12/02 07:14:28;;;;;;;10.25;6.90;;;5.70;99.90;;;;;;5065437;28;20551;-79
2022/12/02 07:16:59;;;;;;;10.18;7.13;;;5.70;99.90;;;;;;5074014;28;20013;-79
2022/12/02 07:19:36;;;;;;;12.23;8.00;;;5.70;99.90;;;;;;5086569;28;20022;-79
2022/12/02 07:22:13;;;;;;;11.75;7.85;;;5.60;99.90;;;;;;5061593;28;20033;-79
2022/12/02 07:24:40;;;;;;;12.77;8.15;;;5.70;99.90;;;;;;5073479;28;20085;-79
2022/12/02 07:27:19;;;;;;;11.30;7.68;;;5.80;99.90;;;;;;5079065;28;20104;-78
2022/12/02 07:29:45;;;;;;;12.05;7.70;;;5.90;99.90;;;;;;5070028;28;20017;-79
2022/12/02 07:32:10;;;;;;;12.98;8.05;;;5.90;99.90;;;;;;5083737;28;20079;-79
2022/12/02 07:34:36;;;;;;;10.15;7.35;;;5.80;99.90;;;;;;5091517;28;20509;-79
2022/12/02 07:37:02;;;;;;;12.20;7.70;;;5.90;99.90;;;;;;5093165;28;20459;-79
2022/12/02 07:39:27;;;;;;;9.10;6.57;;;5.90;99.90;;;;;;5068409;28;20028;-79
2022/12/02 07:41:53;;;;;;;10.40;7.15;;;5.90;99.90;;;;;;5072021;28;20112;-79
2022/12/02 07:44:19;;;;;;;11.82;8.05;;;5.90;99.90;;;;;;5072302;28;20048;-79
2022/12/02 07:46:44;;;;;;;12.98;8.77;;;6.00;99.90;;;;;;5072657;28;20016;-79
2022/12/02 07:49:10;;;;;;;12.90;8.77;;;5.90;99.90;;;;;;5070841;28;20027;-79
2022/12/02 07:51:36;;;;;;;12.50;9.15;;;5.90;99.90;;;;;;5072341;28;20028;-79
2022/12/02 07:54:01;;;;;;;14.98;8.70;;;5.90;99.90;;;;;;5072025;28;20529;-79
2022/12/02 07:56:27;;;;;;;13.90;9.40;;;5.70;99.90;;;;;;5072356;28;20050;-79
2022/12/02 07:58:53;;;;;;;12.77;8.75;;;5.80;99.90;;;;;;5072042;28;20550;-79
2022/12/02 08:01:19;;;;;;;15.07;10.30;;;5.80;99.90;;;;;;5072266;28;20055;-78
2022/12/02 08:03:45;;;;;;;15.50;10.38;;;5.90;99.90;;;;;;5071961;28;20021;-79
2022/12/02 08:06:10;;;;;;;20.23;12.77;;;5.80;99.90;;;;;;5071265;28;20409;-79
2022/12/02 08:08:36;;;;;;;18.85;12.52;;;5.80;99.90;;;;;;5069914;28;20075;-78
2022/12/02 08:11:02;;;;;;;22.17;13.02;;;5.80;99.90;;;;;;5071730;28;20478;-79
2022/12/02 08:13:27;;;;;;;19.08;12.32;;;5.80;99.90;;;;;;5071182;28;20595;-78
2022/12/02 08:15:53;;;;;;;21.05;13.32;;;5.80;99.90;;;;;;5071764;28;20016;-78
2022/12/02 08:18:19;;;;;;;20.48;13.15;;;5.70;99.90;;;;;;5071376;28;20500;-78
2022/12/02 08:20:44;;;;;;;20.42;13.02;;;5.80;99.90;;;;;;5073199;28;20104;-79
2022/12/02 08:23:10;;;;;;;20.13;12.18;;;5.80;99.90;;;;;;5073839;28;20020;-78
2022/12/02 08:25:36;;;;;;;19.92;13.02;;;5.90;99.90;;;;;;5070296;28;20102;-78
2022/12/02 08:28:01;;;;;;;18.13;12.30;;;5.90;99.90;;;;;;5070240;28;20024;-79
2022/12/02 08:30:27;;;;;;;18.45;11.88;;;5.80;99.90;;;;;;5072090;28;20457;-78
2022/12/02 08:32:52;;;;;;;19.20;12.05;;;5.80;99.90;;;;;;5069465;28;20421;-79
2022/12/02 08:35:18;;;;;;;19.23;12.40;;;5.70;99.90;;;;;;5067571;28;20029;-78
2022/12/02 08:37:44;;;;;;;21.15;13.23;;;5.80;99.90;;;;;;5072789;28;20063;-78
2022/12/02 08:40:10;;;;;;;19.45;12.52;;;5.80;99.90;;;;;;5070793;28;20036;-78
2022/12/02 08:42:36;;;;;;;21.95;14.10;;;5.80;99.90;;;;;;5070314;28;20024;-78
2022/12/02 08:45:01;;;;;;;32.15;19.70;;;5.80;99.90;;;;;;5069582;28;20564;-78
2022/12/02 08:47:27;;;;;;;28.15;18.35;;;5.70;99.90;;;;;;5069963;28;20051;-79
2022/12/02 08:49:53;;;;;;;32.35;19.23;;;5.70;99.90;;;;;;5070996;28;20558;-78
2022/12/02 08:52:18;;;;;;;28.13;17.50;;;5.80;99.90;;;;;;5070646;28;20401;-78
2022/12/02 08:54:46;;;;;;;27.60;17.25;;;5.80;99.90;;;;;;5086139;28;20070;-78
2022/12/02 08:57:12;;;;;;;23.23;15.98;;;5.80;99.90;;;;;;5070909;28;20021;-78
2022/12/02 08:59:37;;;;;;;23.70;15.73;;;5.80;99.90;;;;;;5070538;28;20396;-78
2022/12/02 09:02:03;;;;;;;24.13;14.30;;;5.70;99.90;;;;;;5070365;28;20489;-78
2022/12/02 09:04:29;;;;;;;22.33;14.43;;;5.70;99.90;;;;;;5070561;28;20501;-78
2022/12/02 09:06:54;;;;;;;21.67;14.57;;;5.60;99.90;;;;;;5069055;28;20489;-78
2022/12/02 09:09:20;;;;;;;22.88;15.35;;;5.40;99.90;;;;;;5070431;28;20489;-78
2022/12/02 09:11:46;;;;;;;24.88;16.40;;;5.40;99.90;;;;;;5070026;28;20486;-78
2022/12/02 09:14:11;;;;;;;25.15;15.90;;;5.60;99.90;;;;;;5067622;28;20104;-78
2022/12/02 09:16:37;;;;;;;27.80;18.48;;;5.70;99.90;;;;;;5069903;28;20032;-78
2022/12/02 09:19:03;;;;;;;25.60;17.55;;;5.70;99.90;;;;;;5069612;28;20016;-78
2022/12/02 09:21:28;;;;;;;28.85;17.70;;;5.60;99.90;;;;;;5087390;28;20036;-78
2022/12/02 09:23:54;;;;;;;25.40;17.20;;;5.60;99.90;;;;;;5090406;28;20497;-78
2022/12/02 09:26:20;;;;;;;28.25;18.20;;;5.70;99.90;;;;;;5088906;28;20437;-79
2022/12/02 09:28:46;;;;;;;24.73;17.17;;;5.70;99.90;;;;;;5090171;28;20036;-78
2022/12/02 09:31:11;;;;;;;29.30;18.83;;;5.70;99.90;;;;;;5090126;28;20028;-78
2022/12/02 09:33:37;;;;;;;22.77;16.00;;;5.70;99.90;;;;;;5082301;28;20021;-79
2022/12/02 09:36:03;;;;;;;23.90;15.70;;;5.80;99.90;;;;;;5069919;28;20036;-79
2022/12/02 09:38:30;;;;;;;22.50;14.60;;;5.70;99.90;;;;;;5070303;28;20056;-79
2022/12/02 09:40:59;;;;;;;20.95;14.38;;;5.90;99.90;;;;;;5071631;28;20026;-79
2022/12/02 09:43:27;;;;;;;20.98;14.40;;;5.80;99.90;;;;;;5068480;28;20205;-79
2022/12/02 09:45:53;;;;;;;21.65;14.75;;;5.70;99.90;;;;;;5074521;28;20063;-78
2022/12/02 09:48:19;;;;;;;22.23;14.88;;;5.70;99.90;;;;;;5069976;28;20056;-79
2022/12/02 09:50:45;;;;;;;24.98;14.65;;;5.70;99.90;;;;;;5069129;28;20079;-79
2022/12/02 09:53:13;;;;;;;23.33;15.27;;;5.60;99.90;;;;;;5069989;28;20029;-79
2022/12/02 09:55:39;;;;;;;26.63;17.70;;;5.70;99.90;;;;;;5069923;28;20028;-79
2022/12/02 09:58:15;;;;;;;23.80;16.27;;;5.80;99.90;;;;;;5069823;28;20017;-79
2022/12/02 10:00:41;;;;;;;25.38;16.40;;;5.80;99.90;;;;;;5069866;28;20040;-79
2022/12/02 10:03:07;;;;;;;22.77;15.40;;;5.80;99.90;;;;;;5069653;28;20485;-78
2022/12/02 10:05:34;;;;;;;24.08;16.35;;;5.90;99.90;;;;;;5068374;28;20397;-78
2022/12/02 10:08:00;;;;;;;21.67;14.07;;;5.70;99.90;;;;;;5085318;28;20032;-80
2022/12/02 10:10:34;;;;;;;22.17;13.85;;;5.90;99.90;;;;;;5069923;28;20025;-79
2022/12/02 10:13:01;;;;;;;26.48;16.48;;;6.10;99.90;;;;;;5068599;28;20085;-80
2022/12/02 10:15:30;;;;;;;23.30;15.48;;;6.00;99.90;;;;;;5076637;28;20016;-79
2022/12/02 10:17:58;;;;;;;24.42;16.05;;;5.90;99.90;;;;;;5088300;28;20040;-79
2022/12/02 10:20:26;;;;;;;27.38;17.17;;;5.90;99.90;;;;;;5089917;28;20119;-79
2022/12/02 10:23:14;;;;;;;24.80;16.67;;;5.90;99.90;;;;;;5088111;28;20059;-79
2022/12/02 10:25:43;;;;;;;25.67;17.02;;;5.90;99.90;;;;;;5085412;28;20153;-79
2022/12/02 10:28:31;;;;;;;25.05;16.25;;;6.10;99.90;;;;;;5073756;28;20024;-80
2022/12/02 10:31:00;;;;;;;27.75;16.13;;;6.00;99.90;;;;;;5089474;28;20063;-81
2022/12/02 10:33:28;;;;;;;26.27;16.33;;;5.90;99.90;;;;;;5088342;28;20024;-80
2022/12/02 10:35:54;;;;;;;25.25;16.02;;;6.00;99.90;;;;;;5089220;28;20139;-80
2022/12/02 10:38:35;;;;;;;24.90;15.68;;;6.10;99.90;;;;;;5089836;28;20024;-79
2022/12/02 10:41:23;;;;;;;21.40;12.98;;;6.10;99.90;;;;;;5088467;28;20054;-80
2022/12/02 10:43:52;;;;;;;22.45;13.25;;;6.10;99.90;;;;;;5089322;28;20051;-80
2022/12/02 10:46:22;;;;;;;21.73;13.50;;;6.20;99.90;;;;;;5079807;28;20122;-80
2022/12/02 10:48:48;;;;;;;22.63;13.20;;;6.20;99.90;;;;;;5068073;28;20035;-80
2022/12/02 10:51:20;;;;;;;24.08;15.27;;;6.30;99.90;;;;;;5074130;28;20036;-80
2022/12/02 10:53:49;;;;;;;26.60;17.50;;;6.30;99.90;;;;;;5072839;28;20107;-80
2022/12/02 10:56:19;;;;;;;24.40;15.38;;;6.20;99.90;;;;;;5068937;28;20040;-80
2022/12/02 10:58:46;;;;;;;23.23;15.60;;;6.20;99.90;;;;;;5068974;28;20048;-80
2022/12/02 11:01:12;;;;;;;25.77;15.38;;;6.40;99.90;;;;;;5070972;28;20051;-79
2022/12/02 11:03:39;;;;;;;22.67;14.48;;;6.30;99.90;;;;;;5070699;28;20032;-80
2022/12/02 11:06:13;;;;;;;23.13;14.43;;;6.20;99.90;;;;;;5082530;28;20032;-80
2022/12/02 11:08:41;;;;;;;25.13;16.42;;;6.20;99.90;;;;;;5090755;28;20183;-80
2022/12/02 11:11:15;;;;;;;22.83;14.15;;;6.20;99.90;;;;;;5079942;28;20127;-79
2022/12/02 11:13:58;;;;;;;22.13;13.82;;;6.30;99.90;;;;;;5076007;28;20028;-80
2022/12/02 11:16:29;;;;;;;20.38;12.57;;;6.40;99.90;;;;;;5075542;28;20028;-80
2022/12/02 11:19:02;;;;;;;20.63;12.68;;;6.60;99.90;;;;;;5072177;28;20099;-80
2022/12/02 11:21:28;;;;;;;25.23;14.50;;;6.50;99.90;;;;;;5071953;28;20036;-80
2022/12/02 11:24:22;;;;;;;26.40;17.08;;;6.30;99.90;;;;;;5080655;28;20524;-80
2022/12/02 11:27:02;;;;;;;26.42;16.40;;;6.30;99.90;;;;;;5076208;28;20052;-80
2022/12/02 11:29:30;;;;;;;21.60;14.50;;;6.40;99.90;;;;;;5086098;28;20024;-80
2022/12/02 11:32:18;;;;;;;21.33;13.63;;;6.60;99.90;;;;;;5075748;28;20029;-80
2022/12/02 11:34:53;;;;;;;20.30;13.48;;;6.80;99.90;;;;;;5071364;28;20103;-82
2022/12/02 11:37:34;;;;;;;18.65;12.55;;;6.80;99.90;;;;;;5070779;28;20107;-82
2022/12/02 11:40:09;;;;;;;19.73;12.63;;;6.60;99.90;;;;;;5070964;28;20505;-82
2022/12/02 11:42:39;;;;;;;16.95;11.15;;;6.50;99.90;;;;;;5071408;28;20086;-82
2022/12/02 11:45:17;;;;;;;18.73;11.73;;;6.50;99.90;;;;;;5071339;28;20020;-82
2022/12/02 11:47:43;;;;;;;18.80;11.75;;;6.60;99.90;;;;;;5071773;28;20032;-81
2022/12/02 11:50:32;;;;;;;18.70;12.30;;;6.60;99.90;;;;;;5071704;28;20029;-81
2022/12/02 11:53:03;;;;;;;18.13;12.10;;;6.60;99.90;;;;;;5062751;28;20039;-81
2022/12/02 11:55:35;;;;;;;18.27;12.43;;;6.70;99.90;;;;;;5087813;28;20029;-81
2022/12/02 11:58:02;;;;;;;17.17;11.02;;;6.80;99.90;;;;;;5081415;28;20141;-81
2022/12/02 12:00:31;;;;;;;16.48;10.63;;;6.80;99.90;;;;;;5084139;28;20093;-82
2022/12/02 12:03:15;;;;;;;17.55;11.73;;;6.60;99.90;;;;;;5092185;28;20020;-81
2022/12/02 12:06:02;;;;;;;17.42;11.23;;;6.50;99.90;;;;;;5091204;28;20501;-81
2022/12/02 12:08:28;;;;;;;18.05;10.50;;;6.80;99.90;;;;;;5090194;28;20028;-81
2022/12/02 12:11:34;;;;;;;20.40;12.68;;;6.80;99.90;;;;;;5083392;28;20024;-81
2022/12/02 12:14:10;;;;;;;17.13;10.77;;;6.60;99.90;;;;;;5059181;28;20078;-81
2022/12/02 12:16:38;;;;;;;18.20;11.27;;;6.60;99.90;;;;;;5071937;28;20025;-81
2022/12/02 12:19:12;;;;;;;20.05;11.50;;;6.90;99.90;;;;;;5072423;28;20017;-82
2022/12/02 12:21:41;;;;;;;16.02;10.95;;;6.90;99.90;;;;;;5071815;28;20028;-81
2022/12/02 12:24:19;;;;;;;15.35;10.32;;;7.10;99.90;;;;;;5091105;28;20103;-82
2022/12/02 12:26:49;;;;;;;15.95;9.88;;;7.10;99.90;;;;;;5090027;28;20055;-82
2022/12/02 12:29:16;;;;;;;15.43;9.38;;;6.90;99.90;;;;;;5091647;28;20104;-82
2022/12/02 12:31:42;;;;;;;16.20;10.30;;;7.00;99.90;;;;;;5091690;28;20023;-82
2022/12/02 12:34:08;;;;;;;15.18;9.30;;;6.90;99.90;;;;;;5090771;28;20039;-82
2022/12/02 12:36:34;;;;;;;18.13;10.40;;;6.90;99.90;;;;;;5091403;28;20474;-82
2022/12/02 12:39:00;;;;;;;16.20;9.05;;;6.90;99.90;;;;;;5091188;28;20107;-82
2022/12/02 12:41:26;;;;;;;16.25;9.55;;;7.00;99.90;;;;;;5089631;28;20828;-82
2022/12/02 12:43:52;;;;;;;13.98;9.20;;;6.90;99.90;;;;;;5082972;28;20530;-82
2022/12/02 12:46:18;;;;;;;15.20;9.73;;;7.00;99.90;;;;;;5064028;28;20502;-81
2022/12/02 12:48:43;;;;;;;12.82;8.93;;;7.00;99.90;;;;;;5068825;28;20024;-80
2022/12/02 12:51:09;;;;;;;14.27;9.35;;;6.80;99.90;;;;;;5071312;28;20489;-79
2022/12/02 12:53:35;;;;;;;15.45;9.73;;;7.00;99.90;;;;;;5070515;28;20049;-80
2022/12/02 12:56:02;;;;;;;15.77;10.15;;;7.10;99.90;;;;;;5087968;28;20657;-79
2022/12/02 12:58:27;;;;;;;16.27;9.82;;;6.90;99.90;;;;;;5071490;28;20034;-79